Time;durP1;ratioP1;P1;durP2;ratioP2;P2;SDS_P1;SDS_P2;PMS_P1;PMS_P2;Temp;Humidity;BMP_temperature;BMP_pressure;BME280_temperature;BME280_humidity;BME280_pressure;Samples;Min_cycle;Max_cycle;Signal;HPM_P1;HPM_P2
2022/08/05 00:02:21;;;;;;;5.85;5.45;;;;;;;19.03;100.00;101415.47;5230464;28;20029;-78
2022/08/05 00:04:51;;;;;;;5.70;5.25;;;;;;;18.98;100.00;101419.09;5230846;28;20032;-78
2022/08/05 00:07:22;;;;;;;6.72;4.53;;;;;;;18.97;100.00;101408.44;5230800;28;20109;-77
2022/08/05 00:09:53;;;;;;;6.88;6.45;;;;;;;18.81;100.00;101384.03;5230184;28;20021;-78
2022/08/05 00:12:23;;;;;;;23.42;6.82;;;;;;;19.01;100.00;101423.16;5213171;28;20031;-78
2022/08/05 00:14:54;;;;;;;5.75;5.38;;;;;;;19.00;100.00;101424.25;5230486;28;20056;-79
2022/08/05 00:17:24;;;;;;;6.95;6.28;;;;;;;18.96;100.00;101432.25;5231752;28;20044;-79
2022/08/05 00:19:55;;;;;;;5.80;5.40;;;;;;;18.84;100.00;101402.59;5232316;28;20639;-78
2022/08/05 00:22:25;;;;;;;7.32;6.07;;;;;;;18.91;100.00;101393.19;5245465;28;20032;-78
2022/08/05 00:24:56;;;;;;;7.40;6.68;;;;;;;18.99;100.00;101420.72;5218973;28;20024;-79
2022/08/05 00:27:29;;;;;;;5.00;4.70;;;;;;;18.82;100.00;101393.06;5232175;28;20086;-80
2022/08/05 00:30:00;;;;;;;6.20;5.60;;;;;;;18.91;100.00;101423.31;5231723;28;20021;-79
2022/08/05 00:32:30;;;;;;;5.38;4.57;;;;;;;18.86;100.00;101424.19;5230914;28;20155;-79
2022/08/05 00:35:01;;;;;;;5.70;5.30;;;;;;;18.93;100.00;101452.00;5213099;28;20116;-78
2022/08/05 00:37:32;;;;;;;12.60;6.60;;;;;;;18.85;100.00;101450.75;5231522;28;20108;-78
2022/08/05 00:40:03;;;;;;;7.72;6.40;;;;;;;18.88;100.00;101449.34;5231484;28;20032;-79
2022/08/05 00:42:36;;;;;;;6.43;5.82;;;;;;;18.92;100.00;101477.75;5230272;28;20025;-80
2022/08/05 00:45:07;;;;;;;9.18;5.60;;;;;;;18.81;100.00;101468.06;5213553;28;20021;-78
2022/08/05 00:47:39;;;;;;;5.78;5.45;;;;;;;18.80;100.00;101485.56;5232883;28;20058;-78
2022/08/05 00:50:10;;;;;;;4.85;4.53;;;;;;;18.80;100.00;101496.53;5213720;28;20052;-79
2022/08/05 00:52:40;;;;;;;6.13;5.20;;;;;;;18.80;100.00;101508.28;5213524;28;20021;-79
2022/08/05 00:55:11;;;;;;;8.52;5.95;;;;;;;18.74;100.00;101504.03;5230405;28;20371;-78
2022/08/05 00:57:41;;;;;;;7.30;6.85;;;;;;;18.74;100.00;101516.88;5229041;28;20124;-77
2022/08/05 01:00:12;;;;;;;6.22;5.30;;;;;;;18.63;100.00;101508.00;5230910;28;20059;-78
2022/08/05 01:02:43;;;;;;;6.43;5.53;;;;;;;18.58;100.00;101510.75;5231739;28;20021;-79
2022/08/05 01:05:13;;;;;;;5.80;4.68;;;;;;;18.80;100.00;101543.03;5231886;28;20033;-79
2022/08/05 01:07:43;;;;;;;6.47;6.07;;;;;;;18.74;100.00;101528.63;5232037;28;20029;-78
2022/08/05 01:10:17;;;;;;;6.95;6.10;;;;;;;18.80;100.00;101527.44;5229045;28;20017;-78
2022/08/05 01:13:09;;;;;;;6.25;5.75;;;;;;;18.76;100.00;101512.75;5231777;28;20037;-78
2022/08/05 01:15:45;;;;;;;6.32;5.57;;;;;;;18.75;100.00;101511.13;5230891;28;20078;-79
2022/08/05 01:18:23;;;;;;;7.05;6.57;;;;;;;18.73;100.00;101501.56;5230714;28;20033;-78
2022/08/05 01:21:29;;;;;;;8.27;6.63;;;;;;;18.55;100.00;101473.84;5213256;28;20025;-79
2022/08/05 01:24:25;;;;;;;8.35;7.72;;;;;;;18.80;100.00;101504.72;5230078;28;20395;-79
2022/08/05 01:27:32;;;;;;;5.78;5.28;;;;;;;18.83;100.00;101498.66;5229655;28;20616;-79
2022/08/05 01:30:04;;;;;;;8.48;6.18;;;;;;;18.78;100.00;101477.66;5213030;28;20031;-78
2022/08/05 01:32:39;;;;;;;7.45;6.75;;;;;;;18.75;100.00;101439.16;5231904;28;20032;-78
2022/08/05 01:35:17;;;;;;;7.38;6.75;;;;;;;18.59;100.00;101386.56;5231009;28;20054;-79
2022/08/05 01:37:53;;;;;;;8.23;7.50;;;;;;;18.70;100.00;101357.97;5232210;28;20033;-78
2022/08/05 01:40:28;;;;;;;5.68;5.28;;;;;;;18.62;100.00;101364.09;5231943;28;20058;-79
2022/08/05 01:43:01;;;;;;;13.10;7.25;;;;;;;18.56;100.00;101441.84;5229784;28;20025;-78
2022/08/05 01:45:33;;;;;;;5.97;5.57;;;;;;;18.38;100.00;101448.13;5230345;28;20106;-79
2022/08/05 01:48:06;;;;;;;8.20;7.25;;;;;;;18.57;100.00;101435.28;5213853;28;20037;-78
2022/08/05 01:50:39;;;;;;;8.40;6.90;;;;;;;18.48;100.00;101428.81;5231050;28;20111;-78
2022/08/05 01:53:12;;;;;;;9.40;6.80;;;;;;;18.39;100.00;101447.03;5214293;28;20035;-79
2022/08/05 01:55:45;;;;;;;6.93;6.32;;;;;;;18.31;100.00;101462.16;5211322;28;20116;-78
2022/08/05 01:58:16;;;;;;;6.75;6.07;;;;;;;18.35;100.00;101456.91;5212028;28;20455;-79
2022/08/05 02:00:51;;;;;;;7.15;6.22;;;;;;;18.52;100.00;101495.50;5229117;28;20048;-79
2022/08/05 02:03:35;;;;;;;10.63;7.80;;;;;;;18.51;100.00;101482.94;5229604;28;20032;-80
2022/08/05 02:06:07;;;;;;;11.45;6.60;;;;;;;18.56;100.00;101485.63;5231801;28;20052;-78
2022/08/05 02:08:38;;;;;;;7.93;7.35;;;;;;;18.57;100.00;101481.78;5211250;28;20191;-77
2022/08/05 02:11:11;;;;;;;7.32;6.72;;;;;;;18.60;100.00;101486.69;5210580;28;20032;-78
2022/08/05 02:13:56;;;;;;;6.80;6.35;;;;;;;18.61;100.00;101482.84;5227444;28;20032;-79
2022/08/05 02:19:17;;;;;;;6.80;6.30;;;;;;;18.59;100.00;101449.47;5174710;28;20049;-65
2022/08/05 02:22:16;;;;;;;7.88;7.20;;;;;;;18.56;100.00;101455.53;5184123;28;20485;-65
2022/08/05 02:24:51;;;;;;;6.53;6.00;;;;;;;18.62;100.00;101479.00;5161164;28;20042;-67
2022/08/05 02:27:22;;;;;;;18.75;8.23;;;;;;;18.61;100.00;101473.81;5183446;28;20026;-66
2022/08/05 02:29:54;;;;;;;11.60;7.72;;;;;;;18.56;100.00;101458.25;5183330;28;20026;-65
2022/08/05 02:32:27;;;;;;;12.45;9.05;;;;;;;18.54;100.00;101466.75;5183434;28;20482;-66
2022/08/05 02:35:00;;;;;;;9.07;7.38;;;;;;;18.56;100.00;101461.00;5182338;28;20049;-66
2022/08/05 02:37:33;;;;;;;22.38;8.52;;;;;;;18.56;100.00;101470.00;5183403;28;20101;-65
2022/08/05 02:40:05;;;;;;;9.10;8.15;;;;;;;18.58;100.00;101477.94;5183011;28;20568;-66
2022/08/05 02:42:37;;;;;;;8.68;8.07;;;;;;;18.57;100.00;101481.78;5183753;28;20030;-66
2022/08/05 02:45:09;;;;;;;8.90;8.13;;;;;;;18.54;100.00;101477.69;5165116;28;20033;-66
2022/08/05 02:47:41;;;;;;;9.77;7.45;;;;;;;18.58;100.00;101483.41;5183295;28;20069;-66
2022/08/05 02:50:13;;;;;;;8.75;7.90;;;;;;;18.58;100.00;101497.06;5183136;28;20036;-65
2022/08/05 02:52:45;;;;;;;13.52;8.95;;;;;;;18.58;100.00;101501.72;5183215;28;20022;-66
2022/08/05 02:55:16;;;;;;;9.00;8.30;;;;;;;18.55;100.00;101500.41;5182881;28;20030;-65
2022/08/05 02:57:47;;;;;;;7.75;6.95;;;;;;;18.56;100.00;101502.84;5182811;28;20065;-66
2022/08/05 03:00:18;;;;;;;8.68;8.02;;;;;;;18.59;100.00;101511.56;5165166;28;20486;-66
2022/08/05 03:02:50;;;;;;;7.80;7.22;;;;;;;18.49;100.00;101501.56;5182995;28;20037;-66
2022/08/05 03:05:21;;;;;;;9.18;8.38;;;;;;;18.50;100.00;101511.41;5183324;28;20498;-66
2022/08/05 03:07:52;;;;;;;10.50;6.28;;;;;;;18.43;100.00;101503.56;5186492;28;20040;-65
2022/08/05 03:10:24;;;;;;;14.25;8.10;;;;;;;18.46;100.00;101496.72;5186406;28;20014;-66
2022/08/05 03:12:54;;;;;;;7.40;6.65;;;;;;;18.40;100.00;101489.66;5168822;28;20030;-66
2022/08/05 03:15:25;;;;;;;7.72;7.15;;;;;;;18.39;100.00;101496.25;5186199;28;20028;-66
2022/08/05 03:17:55;;;;;;;8.48;7.78;;;;;;;18.35;100.00;101490.53;5186726;28;20026;-66
2022/08/05 03:20:26;;;;;;;7.85;7.25;;;;;;;18.33;100.00;101494.69;5186227;28;20029;-66
2022/08/05 03:22:57;;;;;;;9.40;8.18;;;;;;;18.11;100.00;101465.16;5186549;28;20033;-65
2022/08/05 03:25:28;;;;;;;8.52;7.88;;;;;;;18.30;100.00;101481.59;5185837;28;20036;-64
2022/08/05 03:27:58;;;;;;;11.82;8.82;;;;;;;18.28;100.00;101475.59;5168431;28;20030;-67
2022/08/05 03:30:33;;;;;;;12.07;8.68;;;;;;;18.23;100.00;101484.66;5186295;28;20478;-66
2022/08/05 03:33:05;;;;;;;7.28;6.68;;;;;;;18.16;100.00;101471.38;5186514;28;20048;-65
2022/08/05 03:35:36;;;;;;;11.77;8.25;;;;;;;18.23;100.00;101476.47;5185652;28;20030;-66
2022/08/05 03:38:09;;;;;;;7.25;6.80;;;;;;;18.13;100.00;101449.28;5186305;28;20064;-66
2022/08/05 03:40:45;;;;;;;11.43;9.23;;;;;;;18.22;100.00;101467.44;5186234;28;20026;-65
2022/08/05 03:43:16;;;;;;;8.38;7.57;;;;;;;18.19;100.00;101462.56;5185613;28;20109;-65
2022/08/05 03:45:46;;;;;;;8.23;7.50;;;;;;;18.15;100.00;101458.81;5185843;28;20022;-65
2022/08/05 03:48:18;;;;;;;16.27;8.40;;;;;;;17.96;100.00;101427.06;5185968;28;20448;-66
2022/08/05 03:51:04;;;;;;;11.57;8.23;;;;;;;18.01;100.00;101446.94;5185996;28;20246;-65
2022/08/05 03:53:54;;;;;;;8.25;7.68;;;;;;;17.95;100.00;101450.84;5185604;28;20371;-65
2022/08/05 03:56:35;;;;;;;11.38;7.13;;;;;;;17.88;100.00;101453.94;5185463;28;20509;-64
2022/08/05 03:59:12;;;;;;;8.23;7.45;;;;;;;17.86;100.00;101469.81;5185777;28;20037;-65
2022/08/05 04:01:45;;;;;;;9.43;7.97;;;;;;;17.84;100.00;101454.81;5185818;28;20037;-65
2022/08/05 04:04:20;;;;;;;8.35;7.78;;;;;;;17.87;100.00;101463.25;5185062;28;20038;-65
2022/08/05 04:06:50;;;;;;;10.38;7.35;;;;;;;17.81;100.00;101453.47;5185367;28;20464;-66
2022/08/05 04:09:22;;;;;;;6.95;6.38;;;;;;;17.74;100.00;101461.19;5185812;28;20105;-65
2022/08/05 04:11:54;;;;;;;7.15;6.55;;;;;;;17.70;100.00;101468.31;5185965;28;20033;-65
2022/08/05 04:14:25;;;;;;;8.32;7.63;;;;;;;17.68;100.00;101472.44;5167517;28;20052;-65
2022/08/05 04:16:56;;;;;;;8.50;7.70;;;;;;;17.67;100.00;101462.63;5185344;28;20560;-64
2022/08/05 04:19:28;;;;;;;9.57;7.32;;;;;;;17.67;100.00;101476.28;5185730;28;20033;-67
2022/08/05 04:21:58;;;;;;;6.78;6.28;;;;;;;17.68;100.00;101475.16;5185779;28;20034;-65
2022/08/05 04:24:29;;;;;;;10.45;5.82;;;;;;;17.67;100.00;101474.34;5185799;28;20559;-64
2022/08/05 04:26:59;;;;;;;8.68;7.25;;;;;;;17.72;100.00;101477.03;5185484;28;20112;-66
2022/08/05 04:29:29;;;;;;;5.90;5.38;;;;;;;17.74;100.00;101474.03;5167842;28;20443;-64
2022/08/05 04:32:00;;;;;;;8.88;7.43;;;;;;;17.76;100.00;101480.03;5185115;28;20479;-63
2022/08/05 04:34:30;;;;;;;8.00;7.45;;;;;;;17.77;100.00;101476.19;5184796;28;20041;-63
2022/08/05 04:37:01;;;;;;;8.70;7.60;;;;;;;17.82;100.00;101482.41;5185505;28;20022;-64
2022/08/05 04:39:33;;;;;;;9.80;8.82;;;;;;;17.85;100.00;101478.28;5185134;28;20080;-68
2022/08/05 04:42:04;;;;;;;10.68;7.20;;;;;;;17.85;100.00;101478.28;5167258;28;20053;-63
2022/08/05 04:44:34;;;;;;;7.80;7.30;;;;;;;17.81;100.00;101480.78;5184859;28;20053;-72
2022/08/05 04:47:05;;;;;;;8.55;7.47;;;;;;;17.88;100.00;101485.91;5185069;28;20025;-71
2022/08/05 04:49:35;;;;;;;8.30;7.47;;;;;;;17.94;100.00;101482.00;5167495;28;20022;-65
2022/08/05 04:52:06;;;;;;;7.95;7.32;;;;;;;17.99;100.00;101476.47;5185050;28;20375;-64
2022/08/05 04:54:36;;;;;;;7.03;6.63;;;;;;;18.01;100.00;101468.81;5166799;28;20147;-64
2022/08/05 04:57:07;;;;;;;12.20;8.20;;;;;;;17.99;100.00;101473.75;5167223;28;20022;-70
2022/08/05 04:59:37;;;;;;;9.27;6.70;;;;;;;17.92;100.00;101462.34;5184938;28;20026;-69
2022/08/05 05:02:07;;;;;;;7.57;6.95;;;;;;;17.96;100.00;101477.06;5184865;28;20383;-67
2022/08/05 05:04:38;;;;;;;9.45;7.20;;;;;;;17.92;100.00;101475.19;5184350;28;20026;-63
2022/08/05 05:07:08;;;;;;;13.05;8.13;;;;;;;17.95;100.00;101496.47;5184704;28;20030;-64
2022/08/05 05:09:39;;;;;;;10.05;7.38;;;;;;;17.94;100.00;101495.66;5184883;28;20030;-62
2022/08/05 05:12:09;;;;;;;10.20;7.75;;;;;;;17.93;100.00;101504.97;5184480;28;20021;-63
2022/08/05 05:14:39;;;;;;;9.65;7.15;;;;;;;17.91;100.00;101507.16;5184206;28;20440;-70
2022/08/05 05:17:10;;;;;;;8.23;7.45;;;;;;;17.94;100.00;101512.06;5184985;28;20041;-68
2022/08/05 05:19:40;;;;;;;8.40;7.50;;;;;;;17.85;100.00;101492.78;5184644;28;20052;-66
2022/08/05 05:22:11;;;;;;;10.25;6.55;;;;;;;17.92;100.00;101495.13;5170332;28;20026;-66
2022/08/05 05:24:42;;;;;;;7.32;6.70;;;;;;;17.94;100.00;101500.31;5183186;28;20025;-64
2022/08/05 05:27:12;;;;;;;8.32;7.30;;;;;;;17.94;100.00;101505.78;5184219;28;20026;-67
2022/08/05 05:29:43;;;;;;;8.10;6.63;;;;;;;17.98;100.00;101506.81;5184244;28;20022;-64
2022/08/05 05:32:13;;;;;;;9.80;8.43;;;;;;;18.01;100.00;101509.81;5183918;28;20521;-64
2022/08/05 05:34:44;;;;;;;9.63;7.72;;;;;;;18.09;100.00;101517.38;5183830;28;20028;-61
2022/08/05 05:37:14;;;;;;;9.93;9.13;;;;;;;18.13;100.00;101518.44;5184267;28;20101;-63
2022/08/05 05:39:45;;;;;;;8.73;7.72;;;;;;;18.20;100.00;101520.78;5184294;28;20025;-63
2022/08/05 05:42:15;;;;;;;8.80;7.38;;;;;;;18.27;100.00;101520.44;5184068;28;20108;-68
2022/08/05 05:44:46;;;;;;;6.53;6.00;;;;;;;18.18;100.00;101501.16;5183372;28;20032;-65
2022/08/05 05:47:16;;;;;;;7.13;6.22;;;;;;;18.37;100.00;101525.81;5184112;28;20037;-63
2022/08/05 05:49:46;;;;;;;8.25;7.63;;;;;;;18.43;100.00;101524.66;5184136;28;20037;-64
2022/08/05 05:52:17;;;;;;;8.07;6.65;;;;;;;18.51;100.00;101537.66;5166687;28;20117;-64
2022/08/05 05:54:47;;;;;;;7.85;7.32;;;;;;;18.52;100.00;101542.81;5166242;28;20026;-65
2022/08/05 05:57:18;;;;;;;11.73;7.28;;;;;;;18.57;100.00;101541.94;5184054;28;20013;-64
2022/08/05 05:59:49;;;;;;;15.98;7.95;;;;;;;18.60;100.00;101541.41;5183815;28;20474;-65
2022/08/05 06:02:19;;;;;;;6.70;6.10;;;;;;;18.56;100.00;101526.66;5184185;28;20080;-64
2022/08/05 06:04:50;;;;;;;7.25;6.55;;;;;;;18.69;100.00;101539.66;5182781;28;20022;-63
2022/08/05 06:07:20;;;;;;;7.93;5.28;;;;;;;18.72;100.00;101539.06;5180578;28;20026;-64
2022/08/05 06:09:51;;;;;;;8.70;7.25;;;;;;;18.72;100.00;101528.13;5183402;28;20029;-70
2022/08/05 06:12:21;;;;;;;6.53;5.60;;;;;;;18.74;100.00;101542.31;5183880;28;20022;-67
2022/08/05 06:14:52;;;;;;;6.75;5.70;;;;;;;18.80;100.00;101549.34;5183053;28;20343;-64
2022/08/05 06:17:22;;;;;;;6.72;6.22;;;;;;;18.83;100.00;101553.41;5183516;28;20026;-64
2022/08/05 06:19:52;;;;;;;6.80;6.15;;;;;;;18.89;100.00;101552.22;5183264;28;20065;-64
2022/08/05 06:22:28;;;;;;;7.22;5.68;;;;;;;18.95;100.00;101552.97;5183641;28;20068;-64
2022/08/05 06:24:59;;;;;;;6.15;5.75;;;;;;;19.05;100.00;101570.09;5183135;28;20449;-65
2022/08/05 06:27:30;;;;;;;6.78;6.10;;;;;;;19.20;100.00;101578.06;5183556;28;20061;-70
2022/08/05 06:30:01;;;;;;;5.97;5.57;;;;;;;19.32;100.00;101579.56;5183177;28;20102;-65
2022/08/05 06:32:32;;;;;;;6.18;5.65;;;;;;;19.35;100.00;101582.47;5183503;28;20423;-64
2022/08/05 06:35:02;;;;;;;7.25;5.20;;;;;;;19.42;100.00;101582.94;5182518;28;20018;-71
2022/08/05 06:37:33;;;;;;;6.70;5.38;;;;;;;19.43;100.00;101589.22;5183020;28;20050;-65
2022/08/05 06:40:04;;;;;;;5.05;4.75;;;;;;;19.43;100.00;101601.00;5184932;28;20021;-64
2022/08/05 06:42:35;;;;;;;5.82;5.25;;;;;;;19.43;100.00;101590.03;5187460;28;20406;-69
2022/08/05 06:45:07;;;;;;;11.13;6.93;;;;;;;19.50;100.00;101606.94;5169123;28;20026;-63
2022/08/05 06:47:37;;;;;;;9.20;6.43;;;;;;;19.50;100.00;101606.09;5170047;28;20030;-66
2022/08/05 06:50:08;;;;;;;7.88;6.80;;;;;;;19.55;100.00;101612.34;5187230;28;20021;-65
2022/08/05 06:52:38;;;;;;;4.85;4.55;;;;;;;19.60;100.00;101614.22;5187476;28;20378;-65
2022/08/05 06:55:09;;;;;;;6.10;5.05;;;;;;;19.77;100.00;101616.38;5186617;28;20045;-64
2022/08/05 06:57:39;;;;;;;8.57;4.93;;;;;;;19.99;100.00;101613.81;5169313;28;20065;-63
2022/08/05 07:00:10;;;;;;;5.25;4.88;;;;;;;20.07;100.00;101621.34;5187129;28;20022;-69
2022/08/05 07:02:41;;;;;;;10.98;5.57;;;;;;;19.99;100.00;101613.81;5187151;28;20145;-66
2022/08/05 07:05:13;;;;;;;5.95;5.50;;;;;;;20.01;100.00;101619.81;5186706;28;20088;-65
2022/08/05 07:07:46;;;;;;;5.85;5.43;;;;;;;20.02;100.00;101618.69;5186938;28;20029;-64
2022/08/05 07:10:16;;;;;;;5.80;5.22;;;;;;;20.12;100.00;101625.94;5186552;28;20036;-69
2022/08/05 07:18:25;;;;;;;4.82;4.53;;;;;;;20.14;100.00;101640.16;5186234;28;20049;-63
2022/08/05 07:20:55;;;;;;;5.20;4.90;;;;;;;20.24;100.00;101635.28;5186582;28;20014;-63
2022/08/05 07:23:26;;;;;;;7.22;6.43;;;;;;;20.50;100.00;101638.41;5186029;28;20502;-64
2022/08/05 07:25:56;;;;;;;5.05;4.65;;;;;;;20.57;100.00;101638.00;5186430;28;20021;-59
2022/08/05 07:28:26;;;;;;;6.88;5.47;;;;;;;20.55;100.00;101643.78;5186390;28;20461;-62
2022/08/05 07:30:57;;;;;;;5.40;5.05;;;;;;;20.70;100.00;101648.19;5186016;28;20522;-62
2022/08/05 07:33:27;;;;;;;7.97;3.88;;;;;;;20.94;100.00;101647.16;5185773;28;20026;-68
2022/08/05 07:35:58;;;;;;;3.70;3.50;;;;;;;20.99;100.00;101636.88;5186117;28;20073;-66
2022/08/05 07:38:28;;;;;;;4.50;4.10;;;;;;;21.22;100.00;101663.31;5173248;28;20026;-65
2022/08/05 07:40:59;;;;;;;5.35;4.72;;;;;;;21.51;100.00;101667.63;5168624;28;20050;-65
2022/08/05 07:43:29;;;;;;;4.43;3.47;;;;;;;21.72;100.00;101666.00;5164875;28;20413;-64
2022/08/05 07:46:00;;;;;;;7.30;4.05;;;;;;;21.68;100.00;101653.19;5148112;28;20030;-66
2022/08/05 07:48:30;;;;;;;3.72;3.42;;;;;;;22.08;100.00;101654.97;5165081;28;20030;-71
2022/08/05 07:51:00;;;;;;;3.88;3.03;;;;;;;22.50;100.00;101675.63;5164735;28;20395;-67
2022/08/05 07:53:32;;;;;;;3.40;3.30;;;;;;;22.68;100.00;101665.50;5165080;28;20061;-65
2022/08/05 07:56:03;;;;;;;3.88;3.65;;;;;;;22.90;100.00;101676.44;5165307;28;20041;-64
2022/08/05 07:58:34;;;;;;;3.38;3.13;;;;;;;23.02;100.00;101678.59;5165747;28;20034;-65
2022/08/05 08:01:05;;;;;;;3.50;3.38;;;;;;;23.26;100.00;101672.66;5165248;28;20450;-64
2022/08/05 08:03:35;;;;;;;4.07;3.78;;;;;;;23.17;100.00;101674.56;5165002;28;20383;-65
2022/08/05 08:06:06;;;;;;;6.05;3.30;;;;;;;23.05;100.00;101674.41;5165021;28;20018;-63
2022/08/05 08:08:36;;;;;;;4.30;3.17;;;;;;;22.87;100.00;101674.31;5147388;28;20034;-63
2022/08/05 08:11:07;;;;;;;3.80;3.38;;;;;;;22.56;100.00;101688.09;5165256;28;20018;-63
2022/08/05 08:13:39;;;;;;;6.28;3.40;;;;;;;22.23;100.00;101687.59;5164792;28;20034;-64
2022/08/05 08:16:09;;;;;;;3.47;2.72;;;;;;;22.15;100.00;101688.38;5165066;28;20611;-70
2022/08/05 08:18:40;;;;;;;2.67;2.47;;;;;;;21.95;100.00;101598.06;5314913;22;20504;-82
2022/08/05 08:21:10;;;;;;;4.75;3.25;;;;;;;22.42;100.00;101668.13;5245505;28;20028;-82
2022/08/05 08:23:44;;;;;;;3.35;3.05;;;;;;;22.67;100.00;101683.13;5246533;28;20120;-81
2022/08/05 08:26:15;;;;;;;3.05;2.85;;;;;;;22.97;100.00;101664.16;5245971;28;20043;-81
2022/08/05 08:28:46;;;;;;;5.32;3.95;;;;;;;23.38;100.00;101683.88;5246311;28;20025;-83
2022/08/05 08:31:19;;;;;;;3.38;3.17;;;;;;;23.92;100.00;101695.41;5245871;28;20025;-81
2022/08/05 08:33:50;;;;;;;3.53;3.33;;;;;;;24.12;100.00;101694.72;5263319;28;20033;-83
2022/08/05 08:36:20;;;;;;;8.90;3.15;;;;;;;24.20;100.00;101702.19;5263165;28;20022;-81
2022/08/05 08:38:54;;;;;;;5.35;3.05;;;;;;;23.33;100.00;101639.09;5246100;28;20440;-83
2022/08/05 08:41:26;;;;;;;3.50;3.03;;;;;;;23.71;100.00;101706.28;5263963;28;20028;-82
2022/08/05 08:43:57;;;;;;;3.15;3.05;;;;;;;23.15;100.00;101679.59;5245573;28;20031;-81
2022/08/05 08:46:30;;;;;;;5.75;3.90;;;;;;;22.83;100.00;101720.16;5264651;28;20031;-83
2022/08/05 08:49:03;;;;;;;5.40;3.50;;;;;;;22.42;100.00;101719.59;5264537;28;20079;-82
2022/08/05 08:51:36;;;;;;;4.82;4.43;;;;;;;21.83;100.00;101681.16;5247648;28;20024;-81
2022/08/05 08:54:07;;;;;;;2.72;2.45;;;;;;;21.77;100.00;101731.06;5264450;28;20028;-82
2022/08/05 08:56:41;;;;;;;6.90;3.70;;;;;;;21.45;100.00;101716.38;5246865;28;20025;-81
2022/08/05 08:59:12;;;;;;;3.45;3.15;;;;;;;21.62;100.00;101734.19;5263878;28;20023;-82
2022/08/05 09:01:44;;;;;;;3.33;3.13;;;;;;;21.55;100.00;101732.66;5245546;28;20028;-81
2022/08/05 09:04:15;;;;;;;3.83;3.53;;;;;;;21.58;100.00;101738.66;5263093;28;20092;-82
2022/08/05 09:06:46;;;;;;;4.63;2.30;;;;;;;21.77;100.00;101731.06;5263700;28;20024;-82
2022/08/05 09:09:17;;;;;;;2.55;2.45;;;;;;;21.71;100.00;101705.63;5262777;28;20474;-82
2022/08/05 09:11:47;;;;;;;2.47;2.38;;;;;;;21.86;100.00;101716.28;5245048;28;20024;-82
2022/08/05 09:14:18;;;;;;;3.35;3.15;;;;;;;22.21;100.00;101746.84;5263296;28;20076;-84
2022/08/05 09:16:49;;;;;;;4.05;3.25;;;;;;;22.42;100.00;101728.69;5245392;28;20020;-82
2022/08/05 09:19:19;;;;;;;3.80;3.50;;;;;;;22.51;100.00;101731.50;5263810;28;20050;-83
2022/08/05 09:21:50;;;;;;;2.97;2.78;;;;;;;22.92;100.00;101768.97;5229667;28;20033;-83
2022/08/05 09:24:20;;;;;;;2.20;2.13;;;;;;;22.78;100.00;101758.88;5263171;28;20040;-82
2022/08/05 09:26:55;;;;;;;3.35;3.15;;;;;;;22.92;100.00;101747.75;5264536;28;20081;-82
2022/08/05 09:29:44;;;;;;;2.67;2.47;;;;;;;23.16;100.00;101763.88;5246826;28;20088;-82
2022/08/05 09:32:18;;;;;;;3.08;2.88;;;;;;;23.06;100.00;101731.94;5264812;28;20070;-82
2022/08/05 09:34:51;;;;;;;7.30;3.45;;;;;;;23.22;100.00;101710.25;5245412;28;20020;-83
2022/08/05 09:37:24;;;;;;;2.47;2.38;;;;;;;23.79;100.00;101759.81;5246394;28;20024;-82
2022/08/05 09:39:54;;;;;;;3.55;2.60;;;;;;;24.06;100.00;101775.25;5263735;28;20041;-82
2022/08/05 09:42:27;;;;;;;2.00;1.90;;;;;;;23.79;100.00;101766.16;5244993;28;20036;-82
2022/08/05 09:45:05;;;;;;;6.63;2.50;;;;;;;23.63;100.00;101781.56;5243308;28;20397;-83
2022/08/05 09:47:40;;;;;;;4.93;1.98;;;;;;;23.71;100.00;101782.69;5261484;28;20393;-82
2022/08/05 09:50:11;;;;;;;2.75;2.55;;;;;;;23.73;100.00;101770.19;5261551;28;20018;-81
2022/08/05 09:52:42;;;;;;;2.58;2.00;;;;;;;23.88;100.00;101779.97;5245393;28;20437;-83
2022/08/05 09:55:12;;;;;;;2.38;2.28;;;;;;;24.10;100.00;101740.34;5262862;28;20029;-81
2022/08/05 09:57:46;;;;;;;5.68;2.13;;;;;;;24.33;98.11;101754.78;5278582;28;20028;-82
2022/08/05 10:00:23;;;;;;;1.65;1.55;;;;;;;24.76;99.01;101755.50;5265260;28;20020;-82
2022/08/05 10:02:54;;;;;;;3.40;2.42;;;;;;;25.21;95.93;101763.31;5283309;28;20061;-81
2022/08/05 10:05:27;;;;;;;1.80;1.75;;;;;;;25.58;94.82;101775.47;5264811;28;20591;-83
2022/08/05 10:08:00;;;;;;;4.68;1.90;;;;;;;25.48;90.66;101746.22;5283651;28;20027;-82
2022/08/05 10:10:36;;;;;;;2.55;2.40;;;;;;;25.67;88.81;101789.28;5287492;28;20007;-82
2022/08/05 10:13:07;;;;;;;2.05;1.95;;;;;;;25.09;87.87;101735.56;5271549;28;20023;-81
2022/08/05 10:15:38;;;;;;;3.47;1.98;;;;;;;25.12;87.33;101752.28;5292484;28;20012;-82
2022/08/05 10:18:24;;;;;;;1.65;1.60;;;;;;;24.89;86.70;101779.34;5271875;28;20111;-82
2022/08/05 10:20:57;;;;;;;1.95;1.85;;;;;;;24.53;82.34;101795.56;5268598;28;20027;-83
2022/08/05 10:23:30;;;;;;;3.33;1.75;;;;;;;24.48;79.64;101774.44;5268513;28;20032;-82
2022/08/05 10:26:07;;;;;;;1.58;1.58;;;;;;;25.08;84.06;101776.22;5286954;28;20035;-83
2022/08/05 10:28:39;;;;;;;3.28;2.10;;;;;;;25.20;84.42;101781.03;5287856;28;20047;-83
2022/08/05 10:31:12;;;;;;;2.03;1.88;;;;;;;24.97;81.40;101724.41;5286152;28;20024;-83
2022/08/05 10:33:43;;;;;;;2.30;2.13;;;;;;;25.33;82.46;101774.47;5267859;28;20037;-82
2022/08/05 10:36:14;;;;;;;2.88;2.42;;;;;;;24.97;83.62;101768.63;5288632;28;20028;-82
2022/08/05 10:38:47;;;;;;;2.08;1.98;;;;;;;24.51;85.64;101765.50;5274560;28;20370;-82
2022/08/05 10:41:34;;;;;;;2.10;2.10;;;;;;;24.74;87.44;101788.19;5290820;28;20055;-82
2022/08/05 10:44:10;;;;;;;1.92;1.83;;;;;;;24.66;85.14;101783.47;5290294;28;20087;-83
2022/08/05 10:46:48;;;;;;;2.42;2.05;;;;;;;24.75;88.03;101776.00;5291120;28;20027;-83
2022/08/05 10:49:20;;;;;;;3.03;2.88;;;;;;;24.95;82.17;101785.53;5289629;28;20027;-85
2022/08/05 10:51:56;;;;;;;2.05;1.65;;;;;;;25.12;83.58;101795.72;5269031;28;20028;-83
2022/08/05 10:54:48;;;;;;;2.05;1.95;;;;;;;25.23;81.37;101772.88;5267559;28;20039;-82
2022/08/05 10:57:28;;;;;;;2.20;2.10;;;;;;;25.55;81.78;101778.88;5268571;28;20024;-81
2022/08/05 11:00:31;;;;;;;2.15;2.05;;;;;;;25.85;77.96;101805.41;5264421;28;20032;-81
2022/08/05 11:03:04;;;;;;;3.72;3.00;;;;;;;25.73;80.53;101808.09;5248722;28;20083;-82
2022/08/05 11:05:36;;;;;;;2.53;2.42;;;;;;;25.38;77.55;101777.06;5281849;28;20142;-82
2022/08/05 11:08:09;;;;;;;1.83;1.73;;;;;;;25.20;76.05;101816.97;5288133;28;20488;-82
2022/08/05 11:10:42;;;;;;;7.40;3.72;;;;;;;24.71;77.70;101793.53;5268778;28;20020;-82
2022/08/05 11:13:39;;;;;;;1.98;1.83;;;;;;;25.12;77.06;101809.56;5286635;28;20042;-81
2022/08/05 11:16:22;;;;;;;2.28;2.10;;;;;;;25.02;77.51;101771.22;5286080;28;20038;-81
2022/08/05 11:19:25;;;;;;;1.65;1.55;;;;;;;25.33;76.83;101820.66;5285940;28;20027;-81
2022/08/05 11:22:51;;;;;;;4.45;2.10;;;;;;;24.81;75.50;101815.31;5285869;28;20039;-82
2022/08/05 11:25:32;;;;;;;1.30;1.30;;;;;;;24.43;74.97;101818.78;5199915;28;20022;-81
2022/08/05 11:28:12;;;;;;;2.15;1.50;;;;;;;24.34;76.45;101834.53;5276132;28;20043;-81
2022/08/05 11:30:57;;;;;;;2.22;2.08;;;;;;;24.76;76.25;101835.63;5285826;28;20040;-81
2022/08/05 11:33:38;;;;;;;5.50;2.13;;;;;;;25.20;76.21;101825.25;5287510;28;20024;-82
2022/08/05 11:36:09;;;;;;;1.88;1.77;;;;;;;25.99;71.83;101823.72;5286840;28;20024;-83
2022/08/05 11:38:43;;;;;;;1.98;1.92;;;;;;;26.02;72.00;101848.75;5285045;28;20055;-83
2022/08/05 11:41:20;;;;;;;1.60;1.42;;;;;;;25.65;72.43;101856.00;5266083;28;20028;-82
2022/08/05 11:44:11;;;;;;;4.25;1.85;;;;;;;25.45;74.72;101857.50;5258038;28;20028;-83
2022/08/05 11:46:45;;;;;;;1.63;1.52;;;;;;;24.95;73.34;101840.81;5250610;28;20035;-83
2022/08/05 11:49:28;;;;;;;1.90;1.80;;;;;;;24.82;74.54;101845.38;5244987;28;20027;-83
2022/08/05 11:51:59;;;;;;;1.58;1.48;;;;;;;25.02;73.01;101851.34;5263621;28;20032;-82
2022/08/05 11:54:33;;;;;;;2.25;2.03;;;;;;;25.34;74.22;101872.88;5244800;28;20039;-83